Time;durP1;ratioP1;P1;durP2;ratioP2;P2;SDS_P1;SDS_P2;PMS_P1;PMS_P2;Temp;Humidity;BMP_temperature;BMP_pressure;BME280_temperature;BME280_humidity;BME280_pressure;Samples;Min_cycle;Max_cycle;Signal;HPM_P1;HPM_P2
2023/10/08 00:00:39;;;;;;;8.10;2.80;;;;;;;17.18;55.29;99242.53;5114932;28;20173;-86
2023/10/08 00:02:46;;;;;;;8.57;3.13;;;;;;;17.11;55.52;99233.38;5114087;28;20203;-86
2023/10/08 00:05:16;;;;;;;8.57;2.97;;;;;;;17.08;55.59;99238.91;5096641;28;20178;-86
2023/10/08 00:07:43;;;;;;;8.27;3.10;;;;;;;16.98;55.83;99238.75;5096888;28;20548;-86
2023/10/08 00:10:09;;;;;;;8.07;3.07;;;;;;;16.93;56.25;99237.41;5096751;28;20625;-86
2023/10/08 00:12:36;;;;;;;6.23;2.90;;;;;;;16.91;55.59;99237.56;5114399;28;20203;-86
2023/10/08 00:15:07;;;;;;;4.63;2.20;;;;;;;16.87;55.67;99235.25;5115212;28;20644;-86
2023/10/08 00:17:34;;;;;;;7.47;2.60;;;;;;;16.86;55.38;99238.84;5096780;28;20210;-86
2023/10/08 00:20:00;;;;;;;6.30;2.93;;;;;;;16.82;55.00;99237.41;5114529;28;20193;-86
2023/10/08 00:22:30;;;;;;;9.83;2.70;;;;;;;16.76;55.08;99235.22;5096532;28;20229;-85
2023/10/08 00:24:57;;;;;;;4.30;2.30;;;;;;;16.67;55.06;99222.69;5113991;28;20209;-86
2023/10/08 00:27:24;;;;;;;6.10;2.80;;;;;;;16.60;55.06;99222.31;5114462;28;20174;-86
2023/10/08 00:29:50;;;;;;;6.53;2.63;;;;;;;16.51;55.36;99210.59;5114391;28;20186;-86
2023/10/08 00:32:17;;;;;;;4.90;2.23;;;;;;;16.48;55.06;99210.81;5114281;28;20340;-85
2023/10/08 00:34:46;;;;;;;10.30;2.53;;;;;;;16.41;55.46;99211.41;5103929;28;20218;-85
2023/10/08 00:37:14;;;;;;;5.80;2.40;;;;;;;16.29;55.75;99207.03;5094144;28;20651;-86
2023/10/08 00:39:40;;;;;;;13.90;3.00;;;;;;;16.23;55.48;99208.34;5075761;28;20192;-86
2023/10/08 00:42:08;;;;;;;6.37;2.90;;;;;;;16.17;55.88;99192.91;5093843;28;20254;-86
2023/10/08 00:44:47;;;;;;;5.43;2.40;;;;;;;16.17;56.36;99198.19;5109444;28;20181;-86
2023/10/08 00:47:13;;;;;;;5.67;2.43;;;;;;;16.18;56.11;99189.31;5095287;28;20198;-85
2023/10/08 00:57:26;;;;;;;6.47;2.33;;;;;;;16.26;55.55;99184.31;5114139;28;20689;-86
2023/10/08 00:59:53;;;;;;;4.87;2.40;;;;;;;16.22;55.62;99180.19;5095975;28;20191;-85
2023/10/08 01:02:24;;;;;;;5.77;2.23;;;;;;;16.26;55.70;99180.81;5113912;28;20174;-86
2023/10/08 01:04:51;;;;;;;5.73;2.50;;;;;;;16.17;56.07;99187.63;5095528;28;20221;-86
2023/10/08 01:07:18;;;;;;;8.67;2.63;;;;;;;16.20;56.53;99175.97;5114119;28;20250;-86
2023/10/08 01:09:50;;;;;;;7.80;2.60;;;;;;;16.31;56.29;99174.22;5114153;28;20185;-85
2023/10/08 01:14:55;;;;;;;6.40;2.70;;;;;;;16.26;56.60;99175.53;5114345;28;20160;-85
2023/10/08 01:17:31;;;;;;;6.17;2.67;;;;;;;16.25;56.56;99173.81;5095407;28;20186;-85
2023/10/08 01:20:32;;;;;;;7.13;2.63;;;;;;;16.28;56.58;99174.44;5113932;28;20588;-86
2023/10/08 01:22:57;;;;;;;6.43;2.20;;;;;;;16.31;56.33;99168.94;5112964;28;20189;-85
2023/10/08 01:25:24;;;;;;;5.30;2.67;;;;;;;16.33;56.27;99169.66;5113892;28;20182;-86
2023/10/08 01:28:09;;;;;;;9.37;3.20;;;;;;;16.32;56.65;99170.63;5095230;28;20575;-86
2023/10/08 01:30:41;;;;;;;10.27;2.77;;;;;;;16.41;56.23;99175.19;5095643;28;20231;-85
2023/10/08 01:33:11;;;;;;;7.97;2.57;;;;;;;16.36;55.89;99177.34;5079882;28;20183;-85
2023/10/08 01:35:37;;;;;;;7.07;2.60;;;;;;;16.23;55.79;99171.31;5075155;28;20227;-85
2023/10/08 01:38:06;;;;;;;6.57;2.63;;;;;;;16.18;55.92;99173.44;5093117;28;20180;-86
2023/10/08 01:40:32;;;;;;;6.37;2.50;;;;;;;16.12;56.55;99173.91;5093797;28;20190;-86
2023/10/08 01:43:04;;;;;;;6.73;3.17;;;;;;;16.07;56.94;99181.34;5113439;28;20197;-86
2023/10/08 01:45:30;;;;;;;4.83;2.43;;;;;;;16.10;56.79;99175.81;5111232;28;20226;-85
2023/10/08 01:47:57;;;;;;;8.00;2.57;;;;;;;16.13;56.64;99180.03;5093216;28;20175;-85
2023/10/08 01:50:24;;;;;;;6.60;2.93;;;;;;;16.15;57.09;99170.19;5092992;28;20262;-85
2023/10/08 01:52:51;;;;;;;8.57;2.20;;;;;;;16.11;57.18;99166.09;5099286;28;20680;-85
2023/10/08 01:55:19;;;;;;;5.53;2.73;;;;;;;16.15;57.01;99170.19;5095396;28;20246;-86
2023/10/08 01:57:45;;;;;;;7.57;2.67;;;;;;;16.10;56.97;99161.75;5112768;28;20327;-86
2023/10/08 02:00:22;;;;;;;6.63;2.60;;;;;;;16.03;56.98;99160.53;5115389;28;20628;-85
2023/10/08 02:02:50;;;;;;;7.00;3.23;;;;;;;15.99;57.25;99167.84;5117279;28;20727;-86
2023/10/08 02:05:18;;;;;;;9.30;2.60;;;;;;;15.95;57.77;99167.25;5117568;28;20254;-85
2023/10/08 02:07:47;;;;;;;11.53;3.27;;;;;;;15.87;57.69;99168.75;5116952;28;20624;-86
2023/10/08 02:10:14;;;;;;;5.30;2.20;;;;;;;15.79;57.82;99165.81;5117395;28;20182;-85
2023/10/08 02:12:40;;;;;;;8.47;2.87;;;;;;;15.75;57.49;99164.34;5116774;28;20792;-86
2023/10/08 02:15:11;;;;;;;8.03;3.20;;;;;;;15.73;57.31;99167.13;5117604;28;20609;-85
2023/10/08 02:17:41;;;;;;;6.20;2.90;;;;;;;15.74;57.30;99166.16;5117540;28;20175;-85
2023/10/08 02:20:08;;;;;;;5.07;2.40;;;;;;;15.75;57.61;99164.34;5099016;28;20190;-85
2023/10/08 02:22:35;;;;;;;7.27;3.20;;;;;;;15.74;57.56;99157.41;5117314;28;20242;-85
2023/10/08 02:25:03;;;;;;;7.40;2.97;;;;;;;15.70;57.35;99150.63;5116897;28;20257;-85
2023/10/08 02:27:28;;;;;;;8.90;3.20;;;;;;;15.65;56.91;99148.31;5098761;28;20228;-85
2023/10/08 02:29:55;;;;;;;6.40;3.00;;;;;;;15.59;57.67;99156.69;5098885;28;20201;-86
2023/10/08 02:32:24;;;;;;;7.47;3.10;;;;;;;15.50;57.36;99152.09;5116703;28;20263;-85
2023/10/08 02:34:50;;;;;;;13.33;3.23;;;;;;;15.45;57.75;99155.97;5108416;28;20179;-86
2023/10/08 02:37:16;;;;;;;8.27;2.73;;;;;;;15.43;57.86;99155.25;5097037;28;20190;-85
2023/10/08 02:39:42;;;;;;;8.40;3.47;;;;;;;15.43;57.81;99147.34;5116568;28;20209;-85
2023/10/08 02:42:14;;;;;;;6.60;2.87;;;;;;;15.47;58.06;99143.53;5098846;28;20582;-85
2023/10/08 02:44:42;;;;;;;10.27;3.03;;;;;;;15.42;58.08;99145.63;5098397;28;20263;-85
2023/10/08 02:47:13;;;;;;;9.20;3.27;;;;;;;15.32;58.67;99141.03;5116753;28;20174;-85
2023/10/08 02:49:42;;;;;;;5.77;2.90;;;;;;;15.29;59.36;99146.53;5098533;28;20300;-85
2023/10/08 02:52:11;;;;;;;9.40;3.27;;;;;;;15.28;59.46;99138.69;5116038;28;20270;-85
2023/10/08 02:54:37;;;;;;;7.43;3.20;;;;;;;15.31;59.47;99138.47;5116259;28;20196;-86
2023/10/08 02:57:09;;;;;;;7.33;3.17;;;;;;;15.34;59.18;99133.84;5098285;28;20234;-85
2023/10/08 02:59:44;;;;;;;5.37;2.73;;;;;;;15.35;58.99;99138.19;5116545;28;20588;-85
2023/10/08 03:02:21;;;;;;;5.93;2.60;;;;;;;15.24;59.10;99138.09;5115847;28;20177;-86
2023/10/08 03:04:52;;;;;;;7.37;2.90;;;;;;;15.23;58.95;99132.91;5116595;28;20597;-85
2023/10/08 03:07:22;;;;;;;12.03;3.47;;;;;;;15.23;58.70;99131.13;5098110;28;20173;-85
2023/10/08 03:09:50;;;;;;;6.53;2.80;;;;;;;15.22;58.57;99137.38;5115566;28;20184;-86
2023/10/08 03:12:18;;;;;;;7.30;2.50;;;;;;;15.22;58.43;99134.72;5116441;28;20200;-85
2023/10/08 03:14:49;;;;;;;9.43;3.73;;;;;;;15.19;58.35;99140.22;5116156;28;20172;-85
2023/10/08 03:17:20;;;;;;;8.03;3.00;;;;;;;15.09;58.32;99133.06;5115598;28;20237;-85
2023/10/08 03:19:46;;;;;;;9.77;2.97;;;;;;;15.01;58.34;99138.88;5116400;28;20239;-85
2023/10/08 03:22:12;;;;;;;7.00;2.77;;;;;;;15.01;58.29;99135.41;5097629;28;20602;-85
2023/10/08 03:24:39;;;;;;;7.80;3.20;;;;;;;14.97;58.41;99140.03;5087977;28;20186;-85
2023/10/08 03:27:06;;;;;;;6.47;2.97;;;;;;;14.98;58.20;99131.19;5095380;28;20259;-85
2023/10/08 03:29:40;;;;;;;6.90;3.33;;;;;;;14.91;58.51;99140.47;5077448;28;20241;-85
2023/10/08 03:32:06;;;;;;;8.73;4.10;;;;;;;14.84;58.54;99133.94;5095100;28;20204;-85
2023/10/08 03:34:34;;;;;;;6.43;3.03;;;;;;;14.82;58.88;99135.00;5077344;28;20332;-85
2023/10/08 03:37:05;;;;;;;8.10;3.37;;;;;;;14.78;58.76;99131.72;5078884;28;20195;-85
2023/10/08 03:39:52;;;;;;;7.43;3.23;;;;;;;14.73;58.86;99147.00;5115720;28;20152;-85
2023/10/08 03:42:25;;;;;;;8.20;3.23;;;;;;;14.76;58.98;99141.53;5099861;28;20249;-85
2023/10/08 03:44:52;;;;;;;8.70;3.20;;;;;;;14.67;59.15;99140.38;5097191;28;20189;-85
2023/10/08 03:47:23;;;;;;;6.10;2.80;;;;;;;14.70;59.41;99141.97;5115131;28;20180;-85
2023/10/08 03:49:51;;;;;;;12.43;3.13;;;;;;;14.59;59.51;99139.22;5091191;28;20175;-85
2023/10/08 03:52:26;;;;;;;5.67;2.90;;;;;;;14.62;59.60;99139.03;5115345;28;20191;-85
2023/10/08 03:55:13;;;;;;;6.40;2.60;;;;;;;14.51;60.29;99137.13;5115251;28;20229;-85
2023/10/08 03:57:44;;;;;;;4.97;2.20;;;;;;;14.49;60.50;99128.44;5115086;28;20656;-85
2023/10/08 04:00:14;;;;;;;7.50;3.37;;;;;;;14.52;60.90;99127.38;5115072;28;20711;-85
2023/10/08 04:02:41;;;;;;;13.07;2.90;;;;;;;14.45;60.56;99131.41;5096677;28;20617;-85
2023/10/08 04:05:19;;;;;;;7.63;3.27;;;;;;;14.46;60.44;99130.47;5114897;28;20167;-85
2023/10/08 04:10:49;;;;;;;5.20;2.50;;;;;;;14.44;61.07;99141.09;5114941;28;20661;-85
2023/10/08 04:13:16;;;;;;;7.03;2.63;;;;;;;14.44;61.17;99141.09;5096756;28;20256;-85
2023/10/08 04:15:42;;;;;;;8.50;2.90;;;;;;;14.41;61.39;99136.03;5114614;28;20175;-85
2023/10/08 04:18:13;;;;;;;11.57;3.67;;;;;;;14.45;61.69;99134.03;5096755;28;20664;-86
2023/10/08 04:20:51;;;;;;;10.20;3.47;;;;;;;14.47;61.68;99129.50;5114472;28;20262;-85
2023/10/08 04:23:20;;;;;;;6.07;2.77;;;;;;;14.46;61.69;99133.09;5114070;28;20167;-85
2023/10/08 04:25:54;;;;;;;9.53;3.30;;;;;;;14.44;61.76;99132.38;5096353;28;20179;-85
2023/10/08 04:28:20;;;;;;;10.27;3.37;;;;;;;14.46;61.92;99133.09;5114257;28;20625;-86
2023/10/08 04:30:47;;;;;;;5.47;2.73;;;;;;;14.50;61.61;99138.06;5114437;28;20190;-85
2023/10/08 04:33:14;;;;;;;8.97;3.37;;;;;;;14.44;61.37;99138.47;5114333;28;20675;-85
2023/10/08 04:36:01;;;;;;;4.80;2.90;;;;;;;14.16;62.01;99135.97;5114099;28;20183;-85
2023/10/08 04:38:28;;;;;;;8.23;2.60;;;;;;;14.23;61.83;99131.97;5096445;28;20180;-85
2023/10/08 04:40:54;;;;;;;4.97;2.27;;;;;;;14.30;61.84;99132.41;5096356;28;20203;-85
2023/10/08 04:43:30;;;;;;;7.30;2.73;;;;;;;14.33;62.19;99129.63;5096317;28;20612;-85
2023/10/08 04:45:57;;;;;;;5.43;2.30;;;;;;;14.41;61.77;99127.31;5114186;28;20174;-86
2023/10/08 04:48:23;;;;;;;6.47;2.53;;;;;;;14.46;61.32;99138.38;5095783;28;20179;-85
2023/10/08 04:50:58;;;;;;;5.87;2.37;;;;;;;14.50;60.92;99140.69;5113464;28;20183;-85
2023/10/08 04:53:31;;;;;;;6.13;2.40;;;;;;;14.55;60.88;99141.22;5096090;28;20168;-85
2023/10/08 04:56:05;;;;;;;5.20;2.33;;;;;;;14.62;60.99;99133.75;5114294;28;20156;-86
2023/10/08 04:58:33;;;;;;;7.33;3.47;;;;;;;14.66;61.29;99143.13;5096041;28;20255;-86
2023/10/08 05:01:17;;;;;;;5.77;2.40;;;;;;;14.66;61.75;99135.22;5095846;28;20643;-85
2023/10/08 05:14:34;;;;;;;7.23;2.50;;;;;;;14.94;61.42;99139.41;5113987;28;20174;-86
2023/10/08 05:17:34;;;;;;;5.47;2.53;;;;;;;14.97;60.99;99145.31;5113868;28;20590;-85
2023/10/08 05:30:28;;;;;;;6.10;2.27;;;;;;;16.35;59.91;99135.16;5114110;28;20184;-85
2023/10/08 05:38:15;;;;;;;4.93;2.30;;;;;;;17.56;55.53;99131.72;5120546;28;20188;-85
2023/10/08 06:05:22;;;;;;;7.33;3.00;;;;;;;23.96;41.60;99107.91;5120314;28;20156;-86
2023/10/08 06:13:09;;;;;;;7.10;2.23;;;;;;;27.74;32.50;99092.25;5120250;28;20199;-85
2023/10/08 06:18:27;;;;;;;5.90;2.53;;;;;;;30.76;27.87;99081.13;5119981;28;20192;-85
2023/10/08 06:20:54;;;;;;;5.60;2.63;;;;;;;31.94;26.58;99092.38;5101939;28;20199;-86
2023/10/08 06:23:25;;;;;;;9.57;3.10;;;;;;;32.90;26.66;99087.44;5101257;28;20632;-85
2023/10/08 06:26:26;;;;;;;7.13;2.50;;;;;;;33.67;24.87;99088.66;5101931;28;20223;-85
2023/10/08 06:28:46;;;;;;;6.20;2.35;;;;;;;34.30;23.62;99089.00;5116526;28;20194;-86
2023/10/08 06:31:16;;;;;;;4.90;2.25;;;;;;;34.18;20.76;99078.09;5101758;28;20203;-86
2023/10/08 06:33:43;;;;;;;5.72;2.17;;;;;;;33.90;20.78;99088.75;5101816;28;20175;-85
2023/10/08 06:38:40;;;;;;;4.80;2.10;;;;;;;34.32;22.17;99076.00;5119798;28;20594;-86
2023/10/08 06:43:49;;;;;;;7.13;2.42;;;;;;;34.91;20.78;99072.22;5120686;28;20156;-86
2023/10/08 06:46:19;;;;;;;5.57;2.38;;;;;;;34.93;19.94;99073.66;5098171;28;20175;-86
2023/10/08 06:48:46;;;;;;;4.95;2.25;;;;;;;34.91;20.14;99073.06;5116671;28;20168;-86
2023/10/08 06:51:13;;;;;;;7.22;2.38;;;;;;;34.95;20.80;99076.16;5098308;28;20172;-86
2023/10/08 06:53:40;;;;;;;7.13;2.13;;;;;;;34.79;19.38;99065.97;5098252;28;20267;-87
2023/10/08 06:56:09;;;;;;;4.18;1.92;;;;;;;34.74;21.03;99074.03;5098469;28;20179;-87
2023/10/08 06:58:36;;;;;;;5.03;2.20;;;;;;;34.44;19.74;99071.38;5098390;28;20187;-88
2023/10/08 07:01:08;;;;;;;4.85;2.13;;;;;;;34.33;20.14;99067.56;5098269;28;20183;-87
2023/10/08 07:03:35;;;;;;;4.13;1.88;;;;;;;34.40;19.84;99068.31;5098411;28;20171;-88
2023/10/08 07:06:02;;;;;;;6.30;2.38;;;;;;;34.13;21.11;99067.09;5098494;28;20625;-88
2023/10/08 07:08:32;;;;;;;4.70;2.30;;;;;;;33.87;20.26;99062.00;5116163;28;20172;-88
2023/10/08 07:11:00;;;;;;;5.05;2.20;;;;;;;33.70;21.26;99061.03;5115736;28;20210;-88
2023/10/08 07:13:29;;;;;;;5.40;2.13;;;;;;;33.44;19.94;99073.03;5116003;28;20575;-87
2023/10/08 07:15:55;;;;;;;4.68;1.85;;;;;;;33.11;21.11;99072.63;5115959;28;20171;-88
2023/10/08 07:18:27;;;;;;;7.10;2.30;;;;;;;32.51;21.29;99075.06;5115477;28;20630;-88
2023/10/08 07:20:55;;;;;;;6.22;2.10;;;;;;;32.18;21.90;99072.59;5115774;28;20179;-87
2023/10/08 07:23:25;;;;;;;5.18;2.53;;;;;;;31.91;21.69;99068.41;5115833;28;20186;-88
2023/10/08 07:26:10;;;;;;;7.22;2.38;;;;;;;31.61;23.06;99067.31;5115636;28;20179;-88
2023/10/08 07:28:39;;;;;;;4.35;2.00;;;;;;;31.56;24.25;99068.00;5115749;28;20160;-88
2023/10/08 07:31:15;;;;;;;6.70;2.08;;;;;;;31.44;23.03;99064.28;5114661;28;20278;-88
2023/10/08 07:33:47;;;;;;;5.90;2.42;;;;;;;31.19;24.64;99055.19;5095260;28;20235;-88
2023/10/08 07:36:18;;;;;;;5.03;2.08;;;;;;;30.99;22.96;99059.84;5077172;28;20239;-88
2023/10/08 07:38:44;;;;;;;5.55;2.00;;;;;;;30.54;23.15;99060.75;5108705;28;20270;-88
2023/10/08 07:41:14;;;;;;;6.13;2.20;;;;;;;30.36;23.78;99058.69;5097505;28;20263;-87
2023/10/08 07:43:43;;;;;;;5.65;2.13;;;;;;;30.06;24.00;99052.00;5115307;28;20218;-87
2023/10/08 07:46:10;;;;;;;4.38;2.10;;;;;;;29.65;24.01;99052.94;5115691;28;20617;-87
2023/10/08 07:48:42;;;;;;;7.22;1.80;;;;;;;29.16;24.53;99061.28;5097339;28;20179;-88
2023/10/08 07:51:09;;;;;;;5.88;2.20;;;;;;;28.80;24.77;99057.13;5097288;28;20164;-88
2023/10/08 07:53:37;;;;;;;3.97;1.70;;;;;;;28.55;24.75;99060.25;5115882;28;20254;-87
2023/10/08 07:56:06;;;;;;;4.15;1.70;;;;;;;28.45;24.64;99053.53;5115259;28;20182;-87
2023/10/08 07:58:35;;;;;;;6.03;1.80;;;;;;;28.23;26.12;99058.13;5096074;28;20183;-87
2023/10/08 08:01:07;;;;;;;7.68;2.28;;;;;;;27.90;25.74;99057.81;5115693;28;20236;-88
2023/10/08 08:03:36;;;;;;;6.00;1.95;;;;;;;28.08;26.50;99049.31;5097011;28;20182;-87
2023/10/08 08:06:09;;;;;;;6.55;2.88;;;;;;;28.03;26.76;99038.28;5080715;28;20180;-87
2023/10/08 08:08:38;;;;;;;7.25;2.85;;;;;;;28.19;26.68;99040.69;5114747;28;20172;-89
2023/10/08 08:11:11;;;;;;;6.45;2.35;;;;;;;28.26;26.71;99040.72;5114496;28;20183;-87
2023/10/08 08:13:44;;;;;;;7.00;2.30;;;;;;;28.01;26.68;99037.59;5114733;28;20189;-88
2023/10/08 08:16:19;;;;;;;5.20;2.28;;;;;;;28.13;26.55;99040.63;5114846;28;20175;-88
2023/10/08 08:18:57;;;;;;;6.00;1.98;;;;;;;28.37;25.87;99032.94;5114826;28;20179;-89
2023/10/08 08:21:24;;;;;;;6.20;2.10;;;;;;;28.46;26.90;99025.53;5115061;28;20159;-88
2023/10/08 08:23:50;;;;;;;5.55;2.13;;;;;;;28.77;27.81;99019.75;5114468;28;20176;-87
2023/10/08 08:26:29;;;;;;;5.25;1.80;;;;;;;28.95;27.65;99025.44;5114568;28;20171;-88
2023/10/08 08:29:02;;;;;;;6.30;2.00;;;;;;;28.81;26.54;99018.31;5114839;28;20169;-88
2023/10/08 08:31:35;;;;;;;4.53;1.77;;;;;;;28.94;26.94;99007.56;5114016;28;20660;-87
2023/10/08 08:34:08;;;;;;;6.00;2.10;;;;;;;29.25;25.46;99005.25;5114521;28;20632;-87
2023/10/08 08:36:34;;;;;;;7.45;2.00;;;;;;;28.92;24.99;98999.69;5114383;28;20273;-89
2023/10/08 08:39:02;;;;;;;7.03;1.70;;;;;;;28.93;24.92;99004.03;5114073;28;20188;-87
2023/10/08 08:41:28;;;;;;;5.35;1.85;;;;;;;29.18;24.22;99004.38;5114882;28;20262;-88
2023/10/08 08:43:58;;;;;;;5.75;2.00;;;;;;;29.20;23.86;98997.75;5110382;28;20267;-87
2023/10/08 08:46:37;;;;;;;6.85;2.13;;;;;;;29.32;23.91;98992.63;5076236;28;20219;-87
2023/10/08 08:49:11;;;;;;;6.63;1.98;;;;;;;29.26;23.34;98992.56;5106847;28;20190;-88
2023/10/08 08:51:38;;;;;;;6.93;2.05;;;;;;;29.32;24.37;98983.66;5114381;28;20661;-87
2023/10/08 08:54:08;;;;;;;6.78;1.80;;;;;;;29.31;23.96;98974.72;5114062;28;20175;-87
2023/10/08 08:56:36;;;;;;;10.35;2.03;;;;;;;28.97;23.89;98983.72;5114014;28;20164;-87
2023/10/08 08:59:04;;;;;;;8.50;1.77;;;;;;;29.18;24.20;98971.97;5113672;28;20262;-88
2023/10/08 09:01:31;;;;;;;5.00;1.83;;;;;;;29.27;24.37;98976.19;5114188;28;20266;-87
2023/10/08 09:04:01;;;;;;;5.78;1.90;;;;;;;29.43;23.45;98970.38;5113951;28;20172;-87
2023/10/08 09:06:28;;;;;;;7.20;2.15;;;;;;;29.53;22.94;98970.84;5113905;28;20164;-86
2023/10/08 09:09:11;;;;;;;9.10;2.33;;;;;;;29.69;23.66;98973.13;5083324;28;20541;-88
2023/10/08 09:11:42;;;;;;;16.92;3.28;;;;;;;29.63;23.25;98965.88;5093653;28;20181;-88
2023/10/08 09:14:10;;;;;;;7.82;2.10;;;;;;;29.87;23.13;98960.91;5106224;28;20179;-88
2023/10/08 09:16:37;;;;;;;5.50;2.20;;;;;;;29.81;22.74;98954.47;5113784;28;20171;-90
2023/10/08 09:19:11;;;;;;;3.97;1.75;;;;;;;29.87;21.88;98961.75;5095390;28;20183;-87
2023/10/08 09:21:39;;;;;;;5.63;1.48;;;;;;;29.81;22.12;98958.00;5095937;28;20163;-88
2023/10/08 09:24:11;;;;;;;5.50;1.42;;;;;;;29.63;22.21;98952.34;5081749;28;20188;-90
2023/10/08 09:26:39;;;;;;;4.65;1.70;;;;;;;29.71;22.43;98951.31;5093717;28;20156;-92
2023/10/08 09:29:05;;;;;;;8.48;2.33;;;;;;;29.56;22.16;98946.09;5084509;28;20274;-90
2023/10/08 09:31:35;;;;;;;3.85;1.60;;;;;;;29.99;23.10;98943.84;5113796;28;20282;-92
2023/10/08 09:34:03;;;;;;;4.40;1.65;;;;;;;30.28;22.98;98940.72;5113373;28;20168;-88
2023/10/08 09:36:33;;;;;;;4.45;1.52;;;;;;;30.25;22.09;98937.59;5113602;28;20660;-90
2023/10/08 09:39:06;;;;;;;4.25;1.70;;;;;;;30.66;22.48;98935.41;5095601;28;20198;-88
2023/10/08 09:41:34;;;;;;;5.75;1.90;;;;;;;30.76;21.17;98937.69;5113946;28;20159;-89
2023/10/08 09:44:04;;;;;;;6.13;1.80;;;;;;;30.59;21.72;98931.91;5113783;28;20182;-88
2023/10/08 09:46:34;;;;;;;5.70;1.80;;;;;;;30.55;22.27;98927.97;5113168;28;20190;-89
2023/10/08 09:49:06;;;;;;;3.10;1.40;;;;;;;30.81;21.54;98917.06;5113936;28;20508;-88
2023/10/08 09:51:33;;;;;;;5.03;1.33;;;;;;;30.89;21.08;98922.22;5111165;28;20203;-89
2023/10/08 09:54:18;;;;;;;6.10;1.98;;;;;;;30.71;21.54;98911.28;5075559;28;20339;-91
2023/10/08 09:56:44;;;;;;;6.15;1.42;;;;;;;31.00;21.46;98902.59;5077038;28;20563;-90
2023/10/08 09:59:14;;;;;;;4.75;1.58;;;;;;;31.31;21.16;98907.22;5088649;28;20206;-89
2023/10/08 10:01:42;;;;;;;8.10;2.13;;;;;;;31.50;21.99;98910.84;5075408;28;20172;-89
2023/10/08 10:04:35;;;;;;;5.45;1.90;;;;;;;31.51;20.50;98890.84;5094698;28;20218;-94
2023/10/08 10:07:12;;;;;;;5.70;1.42;;;;;;;31.85;21.14;98898.47;5095420;28;20191;-91
2023/10/08 10:09:42;;;;;;;5.90;2.13;;;;;;;31.91;21.82;98892.16;5113900;28;20257;-91
2023/10/08 10:12:11;;;;;;;4.65;1.60;;;;;;;31.86;21.12;98881.16;5095605;28;20204;-92
2023/10/08 10:14:48;;;;;;;3.17;1.40;;;;;;;31.86;20.14;98880.34;5096158;28;20176;-93
2023/10/08 10:17:22;;;;;;;4.97;1.70;;;;;;;31.99;21.12;98878.34;5113551;28;20171;-90
2023/10/08 10:20:01;;;;;;;5.07;1.60;;;;;;;32.14;20.53;98888.84;5075374;28;20602;-91
2023/10/08 10:22:35;;;;;;;4.25;1.42;;;;;;;32.10;19.95;98884.94;5115506;28;20171;-90
2023/10/08 10:25:18;;;;;;;4.53;1.58;;;;;;;31.62;20.08;98871.16;5099401;28;20164;-92
2023/10/08 10:27:56;;;;;;;5.68;2.00;;;;;;;31.77;20.81;98878.94;5112542;28;20549;-90
2023/10/08 10:30:27;;;;;;;5.30;1.73;;;;;;;31.91;21.04;98875.91;5097012;28;20173;-92
2023/10/08 10:32:54;;;;;;;5.45;1.85;;;;;;;31.97;21.75;98874.19;5079053;28;20216;-93
2023/10/08 10:35:21;;;;;;;7.07;2.10;;;;;;;31.75;21.24;98865.63;5094718;28;20187;-89
2023/10/08 10:37:58;;;;;;;4.50;1.63;;;;;;;31.70;21.72;98865.47;5098747;28;20228;-91
2023/10/08 10:40:39;;;;;;;4.25;1.50;;;;;;;31.82;21.29;98860.13;5117473;28;20244;-92
2023/10/08 10:43:07;;;;;;;5.40;1.67;;;;;;;32.05;21.37;98854.94;5117438;28;20239;-90
2023/10/08 10:45:36;;;;;;;7.10;2.17;;;;;;;32.08;20.99;98855.31;5116607;28;20258;-90
2023/10/08 10:53:27;;;;;;;4.53;1.65;;;;;;;32.22;21.30;98835.13;5103693;28;20298;-91
2023/10/08 10:56:04;;;;;;;8.48;1.80;;;;;;;32.53;21.79;98842.28;5098851;28;20180;-92
2023/10/08 10:59:27;;;;;;;7.32;1.63;;;;;;;32.59;21.61;98826.97;5098422;28;20265;-93
2023/10/08 11:02:07;;;;;;;5.47;1.75;;;;;;;32.78;21.11;98825.88;5047235;28;20603;-90
2023/10/08 11:04:47;;;;;;;4.68;1.75;;;;;;;32.71;20.61;98816.97;5106891;28;20199;-90
2023/10/08 11:07:16;;;;;;;8.45;2.00;;;;;;;32.51;20.68;98821.84;5116928;28;20597;-92
2023/10/08 11:09:44;;;;;;;4.25;1.30;;;;;;;32.48;21.00;98812.25;5116693;28;20163;-90
2023/10/08 11:12:14;;;;;;;5.22;1.65;;;;;;;32.43;21.67;98809.41;5098722;28;20615;-91
2023/10/08 11:14:47;;;;;;;4.78;1.27;;;;;;;32.27;20.93;98811.91;5079856;28;20522;-92
2023/10/08 11:20:26;;;;;;;4.50;1.65;;;;;;;32.44;21.75;98802.09;5071353;28;20193;-91
2023/10/08 11:23:17;;;;;;;3.92;1.45;;;;;;;32.38;21.14;98789.44;5098604;28;20617;-92
2023/10/08 11:25:53;;;;;;;3.78;1.45;;;;;;;32.45;20.63;98795.59;5115889;28;20242;-90
2023/10/08 11:28:20;;;;;;;4.70;1.65;;;;;;;32.42;20.74;98787.91;5081536;28;20258;-90
2023/10/08 11:30:51;;;;;;;5.28;1.60;;;;;;;32.39;21.46;98775.63;5115834;28;20233;-91
2023/10/08 11:33:17;;;;;;;5.40;1.83;;;;;;;32.60;21.10;98767.03;5116603;28;20188;-92
2023/10/08 11:36:42;;;;;;;5.18;1.40;;;;;;;32.70;20.98;98775.47;5116085;28;20581;-94
2023/10/08 11:39:21;;;;;;;4.68;1.75;;;;;;;32.76;21.59;98776.41;4997607;28;20214;-90
2023/10/08 11:42:55;;;;;;;;;;;;;;;;;;;;;
2023/10/08 11:49:57;;;;;;;;;;;;;;;;;;;;;
2023/10/08 11:53:02;;;;;;;5.43;1.30;;;;;;;33.09;20.93;98744.19;4935968;29;20234;-93
2023/10/08 11:55:35;;;;;;;5.25;1.73;;;;;;;33.14;20.70;98747.00;4936544;29;20189;-91
2023/10/08 12:02:14;;;;;;;;;;;;;;;;;;;;;
2023/10/08 12:05:34;;;;;;;4.85;1.58;;;;;;;32.87;20.57;98728.63;4905839;29;20212;-96
2023/10/08 12:08:22;;;;;;;4.63;1.70;;;;;;;32.92;21.41;98721.44;4928154;29;20189;-93
2023/10/08 12:11:15;;;;;;;5.50;1.92;;;;;;;33.17;21.35;98713.94;4933678;29;20293;-94
2023/10/08 12:14:10;;;;;;;3.58;1.15;;;;;;;32.86;21.02;98703.38;5017576;28;20198;-90
2023/10/08 12:16:36;;;;;;;4.07;1.55;;;;;;;32.91;21.62;98708.94;5044273;28;20192;-90
2023/10/08 12:19:22;;;;;;;7.50;1.63;;;;;;;32.74;21.73;98702.50;5089495;28;20183;-94
2023/10/08 12:25:23;;;;;;;4.63;1.40;;;;;;;32.84;21.07;98694.63;5042351;28;20186;-93
2023/10/08 12:31:53;;;;;;;5.03;1.63;;;;;;;33.50;21.23;98674.47;4973224;28;20201;-92
2023/10/08 12:35:24;;;;;;;3.75;1.55;;;;;;;33.44;20.86;98686.31;4986577;28;20176;-92
2023/10/08 12:45:27;;;;;;;3.20;1.58;;;;;;;33.71;21.37;98677.41;4897702;29;20201;-94
2023/10/08 12:51:52;;;;;;;6.63;1.85;;;;;;;33.19;21.03;98675.66;4936175;29;20668;-93
2023/10/08 12:55:39;;;;;;;5.07;1.65;;;;;;;33.14;21.33;98676.38;4918625;29;20173;-95
2023/10/08 13:08:19;;;;;;;;;;;;;;;;;;;;;
2023/10/08 13:21:36;;;;;;;11.30;2.33;;;;;;;33.40;21.52;98669.63;5070347;28;20192;-91
2023/10/08 13:24:08;;;;;;;8.40;1.55;;;;;;;33.31;21.42;98652.84;5073575;28;20600;-93
2023/10/08 13:26:51;;;;;;;;;;;;;;;;;;;;;
2023/10/08 13:29:18;;;;;;;5.78;1.20;;;;;;;33.47;21.22;98658.63;5073733;28;20183;-91
2023/10/08 13:31:47;;;;;;;3.05;0.95;;;;;;;33.49;21.62;98653.78;5074101;28;20247;-95
2023/10/08 13:41:29;;;;;;;5.40;1.48;;;;;;;33.53;20.92;98649.53;5012033;28;20241;-93
2023/10/08 13:44:35;;;;;;;7.45;1.52;;;;;;;33.33;20.75;98655.34;4973247;28;20196;-94
2023/10/08 13:57:34;;;;;;;5.97;1.58;;;;;;;33.58;21.58;98642.34;4882165;29;20182;-91
2023/10/08 14:00:12;;;;;;;8.38;2.30;;;;;;;33.61;20.74;98631.00;4881355;29;20324;-91
2023/10/08 14:13:19;;;;;;;6.88;1.48;;;;;;;33.13;21.88;98647.56;4807975;29;20711;-91
2023/10/08 14:19:16;;;;;;;9.85;2.08;;;;;;;32.96;21.68;98643.06;4884092;29;20187;-92
2023/10/08 14:22:13;;;;;;;5.85;2.10;;;;;;;32.89;21.64;98637.72;4899972;29;20179;-90
2023/10/08 14:24:59;;;;;;;7.35;1.88;;;;;;;32.57;21.74;98641.84;4889725;29;20199;-91
2023/10/08 14:27:35;;;;;;;9.45;1.85;;;;;;;32.64;21.98;98650.69;4976480;28;20636;-92
2023/10/08 14:33:24;;;;;;;4.70;1.23;;;;;;;32.00;22.20;98646.81;5034847;28;20214;-92
2023/10/08 14:45:00;;;;;;;4.32;1.20;;;;;;;31.58;22.40;98647.72;5043495;28;20277;-91
2023/10/08 14:47:41;;;;;;;4.43;1.55;;;;;;;31.79;22.72;98647.25;5039002;28;20181;-93
2023/10/08 14:50:16;;;;;;;5.55;1.40;;;;;;;31.45;22.15;98650.56;5073407;28;20180;-93
2023/10/08 14:53:01;;;;;;;6.50;1.80;;;;;;;31.11;23.16;98657.38;5081805;28;20193;-93
2023/10/08 14:55:54;;;;;;;4.57;1.83;;;;;;;31.46;22.77;98657.69;5057321;28;20528;-92
2023/10/08 14:58:20;;;;;;;3.70;1.35;;;;;;;31.34;22.47;98662.16;5052375;28;20193;-91
2023/10/08 15:01:05;;;;;;;12.25;1.63;;;;;;;31.35;23.20;98652.97;5058109;28;20173;-90
2023/10/08 15:04:11;;;;;;;9.13;1.85;;;;;;;31.42;22.72;98673.50;5071494;28;20181;-93
2023/10/08 15:11:17;;;;;;;;;;;;;;;;;;;;;